createdAt,value
2022-08-11T00:01:16.234Z,101091.88
2022-08-11T00:03:51.363Z,101094.81
2022-08-11T00:06:27.796Z,101088.81
2022-08-11T00:08:57.745Z,101093.38
2022-08-11T00:11:38.299Z,101096.44
2022-08-11T00:14:18.021Z,101093.97
2022-08-11T00:16:56.770Z,101085.31
2022-08-11T00:20:13.794Z,101091.69
2022-08-11T00:22:24.170Z,101089.22
2022-08-11T00:24:56.197Z,101090.38
2022-08-11T00:27:40.593Z,101083.47
2022-08-11T00:30:13.375Z,101090.72
2022-08-11T00:32:45.614Z,101079.34
2022-08-11T00:35:56.294Z,101077.00
2022-08-11T00:38:08.556Z,101080.81
2022-08-11T00:40:44.011Z,101086.34
2022-08-11T00:43:25.092Z,101090.31
2022-08-11T00:46:12.404Z,101087.19
2022-08-11T00:48:59.169Z,101089.38
2022-08-11T00:52:03.851Z,101092.59
2022-08-11T00:55:34.339Z,101096.75
2022-08-11T00:58:51.136Z,101094.47
2022-08-11T01:01:40.578Z,101097.50
2022-08-11T01:04:55.794Z,101091.56
2022-08-11T01:08:24.185Z,101091.91
2022-08-11T01:11:55.891Z,101094.19
2022-08-11T01:14:54.656Z,101092.63
2022-08-11T01:18:23.661Z,101090.31
2022-08-11T01:21:39.837Z,101090.50
2022-08-11T01:24:58.048Z,101094.31
2022-08-11T01:28:41.908Z,101090.06
2022-08-11T01:32:05.985Z,101100.91
2022-08-11T01:35:31.882Z,101092.16
2022-08-11T01:38:44.477Z,101089.56
2022-08-11T01:42:20.294Z,101103.06
2022-08-11T01:45:23.980Z,101104.09
2022-08-11T01:48:06.396Z,101100.75
2022-08-11T01:50:55.277Z,101109.78
2022-08-11T01:53:35.803Z,101112.63
2022-08-11T01:56:24.462Z,101108.41
2022-08-11T01:59:10.004Z,101111.25
2022-08-11T02:02:02.157Z,101115.91
2022-08-11T02:04:37.048Z,101120.44
2022-08-11T02:07:18.113Z,101109.28
2022-08-11T02:10:29.630Z,101113.81
2022-08-11T02:13:15.663Z,101110.38
2022-08-11T02:15:51.317Z,101113.16
2022-08-11T02:18:48.911Z,101112.47
2022-08-11T02:21:48.131Z,101103.88
2022-08-11T02:24:27.912Z,101114.66
2022-08-11T02:27:15.008Z,101109.50
2022-08-11T02:29:55.920Z,101109.56
2022-08-11T02:32:51.389Z,101108.81
2022-08-11T02:35:26.557Z,101109.84
2022-08-11T02:38:13.349Z,101105.59
2022-08-11T02:40:54.473Z,101104.00
2022-08-11T02:43:48.006Z,101104.16
2022-08-11T02:46:28.801Z,101102.59
2022-08-11T02:49:31.625Z,101095.72
2022-08-11T02:52:09.752Z,101098.72
2022-08-11T02:54:46.106Z,101106.00
2022-08-11T02:57:34.966Z,101101.88
2022-08-11T03:00:09.203Z,101104.59
2022-08-11T03:02:52.624Z,101098.59
2022-08-11T03:05:43.358Z,101107.59
2022-08-11T03:08:37.308Z,101101.66
2022-08-11T03:11:30.864Z,101107.13
2022-08-11T03:14:38.077Z,101108.25
2022-08-11T03:17:22.833Z,101104.03
2022-08-11T03:20:05.756Z,101105.91
2022-08-11T03:22:41.591Z,101103.25
2022-08-11T03:25:19.374Z,101107.00
2022-08-11T03:27:58.976Z,101099.25
2022-08-11T03:30:45.672Z,101105.69
2022-08-11T03:33:42.030Z,101113.72
2022-08-11T03:36:33.777Z,101109.59
2022-08-11T03:39:32.157Z,101113.38
2022-08-11T03:42:12.490Z,101110.97
2022-08-11T03:45:01.053Z,101109.31
2022-08-11T03:48:02.109Z,101115.81
2022-08-11T03:50:54.969Z,101110.59
2022-08-11T03:53:45.295Z,101115.09
2022-08-11T03:57:10.964Z,101117.13
2022-08-11T04:00:20.540Z,101119.03
2022-08-11T04:03:41.730Z,101118.22
2022-08-11T04:06:47.551Z,101114.78
2022-08-11T04:10:08.463Z,101117.44
2022-08-11T04:13:14.185Z,101117.53
2022-08-11T04:16:24.354Z,101119.31
2022-08-11T04:19:51.540Z,101119.31
2022-08-11T04:23:10.161Z,101118.44
2022-08-11T04:26:27.163Z,101108.69
2022-08-11T04:29:12.008Z,101115.72
2022-08-11T04:31:55.348Z,101111.19
2022-08-11T04:34:52.752Z,101117.38
2022-08-11T04:37:53.701Z,101113.75
2022-08-11T04:41:16.370Z,101111.97
2022-08-11T04:44:31.779Z,101117.28
2022-08-11T04:48:03.759Z,101116.38
2022-08-11T04:51:17.222Z,101114.47
2022-08-11T04:54:19.336Z,101115.16
2022-08-11T04:57:09.530Z,101118.41
2022-08-11T05:00:31.673Z,101122.69
2022-08-11T05:03:57.214Z,101123.41
2022-08-11T05:07:21.935Z,101126.06
2022-08-11T05:10:15.462Z,101121.28
2022-08-11T05:12:50.872Z,101121.94
2022-08-11T05:15:49.527Z,101116.31
2022-08-11T05:18:42.788Z,101124.91
2022-08-11T05:21:44.414Z,101127.34
2022-08-11T05:24:39.862Z,101128.03
2022-08-11T05:27:28.525Z,101126.84
2022-08-11T05:30:20.954Z,101133.72
2022-08-11T05:33:20.421Z,101130.84
2022-08-11T05:36:00.131Z,101137.78
2022-08-11T05:38:53.511Z,101136.69
2022-08-11T05:41:45.603Z,101143.56
2022-08-11T05:44:39.071Z,101152.31
2022-08-11T05:47:27.557Z,101141.50
2022-08-11T05:50:15.264Z,101151.13
2022-08-11T05:53:09.158Z,101141.13
2022-08-11T05:56:02.876Z,101143.50
2022-08-11T05:58:42.806Z,101151.16
2022-08-11T06:01:14.119Z,101151.72
2022-08-11T06:04:04.185Z,101149.66
2022-08-11T06:06:33.318Z,101155.53
2022-08-11T06:09:02.907Z,101148.00
2022-08-11T06:11:43.527Z,101155.56
2022-08-11T06:14:15.970Z,101149.81
2022-08-11T06:16:49.572Z,101148.53
2022-08-11T06:19:23.130Z,101145.34
2022-08-11T06:21:53.255Z,101153.78
2022-08-11T06:24:22.925Z,101150.66
2022-08-11T06:27:12.645Z,101154.72
2022-08-11T06:29:54.355Z,101156.94
2022-08-11T06:32:28.309Z,101152.88
2022-08-11T06:35:16.909Z,101151.50
2022-08-11T06:38:03.522Z,101155.47
2022-08-11T06:40:42.985Z,101161.88
2022-08-11T06:43:19.980Z,101149.81
2022-08-11T06:46:03.328Z,101156.25
2022-08-11T06:48:34.679Z,101149.38
2022-08-11T06:51:14.609Z,101150.53
2022-08-11T06:54:03.872Z,101136.75
2022-08-11T06:57:28.300Z,101140.66
2022-08-11T07:00:02.173Z,101139.06
2022-08-11T07:02:35.608Z,101142.78
2022-08-11T07:05:11.004Z,101134.19
2022-08-11T07:08:52.668Z,101134.38
2022-08-11T07:12:13.187Z,101139.81
2022-08-11T07:15:07.693Z,101137.97
2022-08-11T07:17:49.416Z,101133.31
2022-08-11T07:20:37.239Z,101131.75
2022-08-11T07:23:26.802Z,101129.59
2022-08-11T07:26:15.170Z,101124.22
2022-08-11T07:28:58.642Z,101114.78
2022-08-11T07:31:42.063Z,101115.06
2022-08-11T07:34:28.061Z,101112.56
2022-08-11T07:37:00.305Z,101116.44
2022-08-11T07:39:32.872Z,101114.91
2022-08-11T07:42:07.128Z,101108.34
2022-08-11T07:44:58.757Z,101107.72
2022-08-11T07:47:55.146Z,101104.41
2022-08-11T07:50:43.201Z,101109.03
2022-08-11T07:53:12.890Z,101102.66
2022-08-11T07:55:50.919Z,101097.66
2022-08-11T07:58:45.509Z,101099.00
2022-08-11T08:01:41.738Z,101108.53
2022-08-11T08:04:31.386Z,101106.41
2022-08-11T08:07:22.169Z,101107.19
2022-08-11T08:10:09.780Z,101106.84
2022-08-11T08:13:00.355Z,101106.69
2022-08-11T08:15:48.422Z,101104.16
2022-08-11T08:18:26.487Z,101104.75
2022-08-11T08:21:11.979Z,101108.59
2022-08-11T08:23:44.175Z,101111.72
2022-08-11T08:26:35.162Z,101107.00
2022-08-11T08:29:26.056Z,101104.38
2022-08-11T08:31:57.231Z,101109.94
2022-08-11T08:34:26.483Z,101109.16
2022-08-11T08:36:55.800Z,101110.19
2022-08-11T08:39:25.940Z,101108.16
2022-08-11T08:42:00.358Z,101101.16
2022-08-11T08:44:40.529Z,101099.44
2022-08-11T08:47:15.101Z,101100.56
2022-08-11T08:50:08.236Z,101096.59
2022-08-11T08:52:43.895Z,101095.53
2022-08-11T08:55:21.612Z,101098.91
2022-08-11T08:57:53.689Z,101101.63
2022-08-11T09:00:23.852Z,101099.97
2022-08-11T09:02:53.590Z,101093.94
2022-08-11T09:05:23.393Z,101103.41
2022-08-11T09:07:58.038Z,101099.06
2022-08-11T09:10:30.945Z,101101.06
2022-08-11T09:13:00.987Z,101104.78
2022-08-11T09:15:30.747Z,101096.63
2022-08-11T09:18:06.012Z,101096.84
2022-08-11T09:20:38.583Z,101100.53
2022-08-11T09:26:41.711Z,101103.13
2022-08-11T09:29:12.422Z,101101.69
2022-08-11T09:31:41.821Z,101095.97
2022-08-11T09:34:11.535Z,101098.13
2022-08-11T09:36:59.916Z,101108.47
2022-08-11T09:39:48.653Z,101101.59
2022-08-11T09:42:23.108Z,101094.63
2022-08-11T09:44:53.255Z,101087.84
2022-08-11T09:47:26.590Z,101078.97
2022-08-11T09:50:01.363Z,101087.56
2022-08-11T09:52:35.682Z,101077.94
2022-08-11T09:55:11.112Z,101077.72
2022-08-11T09:58:04.383Z,101074.50
2022-08-11T10:00:40.195Z,101069.84
2022-08-11T10:03:13.261Z,101078.44
2022-08-11T10:06:08.010Z,101078.94
2022-08-11T10:08:39.133Z,101070.81
2022-08-11T10:11:12.052Z,101072.88
2022-08-11T10:14:32.910Z,101075.19
2022-08-11T10:16:53.894Z,101074.44
2022-08-11T10:19:23.117Z,101070.09
2022-08-11T10:22:09.325Z,101069.34
2022-08-11T10:24:56.265Z,101068.31
2022-08-11T10:27:34.790Z,101064.28
2022-08-11T10:30:32.893Z,101074.03
2022-08-11T10:33:37.048Z,101058.94
2022-08-11T10:36:16.519Z,101052.28
2022-08-11T10:38:50.344Z,101040.44
2022-08-11T10:41:37.125Z,101042.81
2022-08-11T10:44:25.657Z,101051.09
2022-08-11T10:47:13.318Z,101059.09
2022-08-11T10:49:42.314Z,101042.47
2022-08-11T10:52:29.603Z,101042.72
2022-08-11T10:55:15.969Z,101038.50
2022-08-11T10:58:04.727Z,101044.22
2022-08-11T11:00:34.977Z,101034.66
2022-08-11T11:03:22.611Z,101029.03
2022-08-11T11:06:27.219Z,101034.69
2022-08-11T11:09:00.016Z,101035.06
2022-08-11T11:11:56.446Z,101023.22
2022-08-11T11:14:50.752Z,101023.66
2022-08-11T11:17:48.570Z,101013.16
2022-08-11T11:20:34.736Z,101011.91
2022-08-11T11:23:16.707Z,101006.88
2022-08-11T11:26:11.314Z,101009.41
2022-08-11T11:29:21.443Z,101000.59
2022-08-11T11:32:07.551Z,101002.66
2022-08-11T11:34:59.351Z,101005.22
2022-08-11T11:37:34.549Z,100997.19
2022-08-11T11:40:04.318Z,101000.50
2022-08-11T11:42:32.963Z,100989.97
2022-08-11T11:45:01.843Z,100985.53
2022-08-11T11:47:31.387Z,100981.94
2022-08-11T11:50:00.233Z,100986.69
2022-08-11T11:52:31.372Z,100982.63
2022-08-11T11:55:00.946Z,100969.97
2022-08-11T11:57:59.388Z,100962.75
2022-08-11T12:00:48.888Z,100959.19
2022-08-11T12:03:19.080Z,100956.56
2022-08-11T12:05:48.208Z,100960.34
2022-08-11T12:08:22.392Z,100949.28
2022-08-11T12:11:16.166Z,100953.66
2022-08-11T12:13:47.196Z,100953.44
2022-08-11T12:16:32.871Z,100958.44
2022-08-11T12:19:07.126Z,100945.63
2022-08-11T12:21:37.560Z,100943.94
2022-08-11T12:24:29.123Z,100938.69
2022-08-11T12:27:18.244Z,100926.81
2022-08-11T12:29:55.040Z,100927.84
2022-08-11T12:32:26.863Z,100932.00
2022-08-11T12:34:56.928Z,100927.72
2022-08-11T12:37:31.284Z,100923.94
2022-08-11T12:40:43.099Z,100918.09
2022-08-11T12:43:37.986Z,100914.00
2022-08-11T12:46:11.142Z,100908.31
2022-08-11T12:49:05.492Z,100915.75
2022-08-11T12:52:13.915Z,100906.06
2022-08-11T12:54:57.258Z,100904.28
2022-08-11T12:57:54.574Z,100900.59
2022-08-11T13:00:42.410Z,100895.63
2022-08-11T13:03:30.517Z,100883.69
2022-08-11T13:06:02.544Z,100885.69
2022-08-11T13:08:35.398Z,100883.19
2022-08-11T13:11:22.925Z,100884.75
2022-08-11T13:13:57.945Z,100878.56
2022-08-11T13:16:31.108Z,100878.28
2022-08-11T13:19:01.860Z,100876.84
2022-08-11T13:21:31.632Z,100882.97
2022-08-11T13:24:03.588Z,100874.00
2022-08-11T13:26:49.747Z,100879.50
2022-08-11T13:29:23.837Z,100866.22
2022-08-11T13:31:54.400Z,100860.56
2022-08-11T13:34:26.814Z,100855.06
2022-08-11T13:36:59.315Z,100854.56
2022-08-11T13:39:31.056Z,100859.25
2022-08-11T13:42:02.961Z,100855.19
2022-08-11T13:44:37.798Z,100852.53
2022-08-11T13:47:09.226Z,100847.88
2022-08-11T13:49:40.396Z,100842.84
2022-08-11T13:52:14.793Z,100840.22
2022-08-11T13:54:44.995Z,100835.78
2022-08-11T13:58:07.706Z,100833.34
2022-08-11T14:00:28.136Z,100824.66
2022-08-11T14:02:58.629Z,100824.59
2022-08-11T14:05:30.242Z,100830.50
2022-08-11T14:08:06.038Z,100826.97
2022-08-11T14:10:36.780Z,100811.41
2022-08-11T14:13:29.141Z,100813.16
2022-08-11T14:16:14.117Z,100809.66
2022-08-11T14:18:51.333Z,100807.50
2022-08-11T14:21:40.161Z,100806.88
2022-08-11T14:24:11.533Z,100805.97
2022-08-11T14:26:44.277Z,100807.84
2022-08-11T14:29:17.245Z,100788.84
2022-08-11T14:31:50.177Z,100790.66
2022-08-11T14:34:22.240Z,100800.31
2022-08-11T14:36:53.764Z,100786.28
2022-08-11T14:39:25.319Z,100795.19
2022-08-11T14:42:14.436Z,100793.22
2022-08-11T14:45:05.060Z,100785.94
2022-08-11T14:47:37.526Z,100782.00
2022-08-11T14:50:12.473Z,100774.53
2022-08-11T14:52:50.081Z,100767.78
2022-08-11T14:55:37.968Z,100771.53
2022-08-11T14:58:09.802Z,100776.69
2022-08-11T15:00:40.349Z,100772.13
2022-08-11T15:03:13.403Z,100767.31
2022-08-11T15:05:56.318Z,100767.28
2022-08-11T15:08:50.217Z,100772.09
2022-08-11T15:11:39.292Z,100760.50
2022-08-11T15:14:10.932Z,100760.50
2022-08-11T15:17:01.484Z,100760.91
2022-08-11T15:19:40.404Z,100762.66
2022-08-11T15:22:29.152Z,100745.19
2022-08-11T15:25:00.103Z,100754.63
2022-08-11T15:27:49.505Z,100749.63
2022-08-11T15:30:35.667Z,100742.91
2022-08-11T15:33:30.039Z,100757.91
2022-08-11T15:36:20.549Z,100756.69
2022-08-11T15:38:55.762Z,100750.97
2022-08-11T15:41:58.512Z,100744.47
2022-08-11T15:45:05.471Z,100741.72
2022-08-11T15:47:41.719Z,100748.41
2022-08-11T15:50:17.365Z,100741.22
2022-08-11T15:52:54.462Z,100743.53
2022-08-11T15:55:24.571Z,100736.81
2022-08-11T15:58:14.120Z,100735.16
2022-08-11T16:01:08.628Z,100732.03
2022-08-11T16:04:09.080Z,100736.78
2022-08-11T16:06:47.812Z,100730.38
2022-08-11T16:09:46.965Z,100727.28
2022-08-11T16:12:22.915Z,100728.38
2022-08-11T16:15:12.905Z,100732.81
2022-08-11T16:17:45.953Z,100713.28
2022-08-11T16:20:18.766Z,100726.09
2022-08-11T16:22:57.190Z,100725.16
2022-08-11T16:27:03.990Z,100720.75
2022-08-11T16:28:26.405Z,100714.78
2022-08-11T16:30:57.655Z,100716.00
2022-08-11T16:33:49.422Z,100716.50
2022-08-11T16:36:34.387Z,100711.53
2022-08-11T16:39:04.090Z,100711.72
2022-08-11T16:41:55.961Z,100707.25
2022-08-11T16:44:43.562Z,100703.22
2022-08-11T16:47:17.653Z,100709.19
2022-08-11T16:50:08.721Z,100710.19
2022-08-11T16:52:37.337Z,100699.72
2022-08-11T16:55:07.221Z,100706.06
2022-08-11T16:57:56.233Z,100705.22
2022-08-11T17:00:25.887Z,100700.97
2022-08-11T17:03:28.194Z,100704.97
2022-08-11T17:06:14.217Z,100699.69
2022-08-11T17:09:05.861Z,100701.59
2022-08-11T17:11:58.864Z,100701.78
2022-08-11T17:14:38.339Z,100690.59
2022-08-11T17:17:13.548Z,100688.09
2022-08-11T17:20:42.317Z,100692.78
2022-08-11T17:22:58.426Z,100685.44
2022-08-11T17:25:29.298Z,100684.38
2022-08-11T17:28:00.672Z,100691.72
2022-08-11T17:30:45.532Z,100686.25
2022-08-11T17:33:33.250Z,100678.38
2022-08-11T17:36:03.521Z,100680.00
2022-08-11T17:38:34.597Z,100678.47
2022-08-11T17:41:23.214Z,100681.38
2022-08-11T17:44:12.365Z,100687.66
2022-08-11T17:47:05.657Z,100678.78
2022-08-11T17:49:38.035Z,100688.38
2022-08-11T17:52:25.924Z,100687.28
2022-08-11T17:55:16.818Z,100687.34
2022-08-11T17:58:23.109Z,100694.63
2022-08-11T18:00:52.498Z,100703.19
2022-08-11T18:03:39.608Z,100709.75
2022-08-11T18:06:12.888Z,100702.56
2022-08-11T18:09:02.629Z,100706.09
2022-08-11T18:12:11.132Z,100711.25
2022-08-11T18:15:00.738Z,100717.72
2022-08-11T18:17:46.937Z,100712.88
2022-08-11T18:20:34.365Z,100723.97
2022-08-11T18:23:41.693Z,100718.72
2022-08-11T18:26:36.498Z,100724.31
2022-08-11T18:29:25.774Z,100721.25
2022-08-11T18:32:20.723Z,100720.53
2022-08-11T18:35:10.666Z,100719.97
2022-08-11T18:38:05.746Z,100714.69
2022-08-11T18:40:54.304Z,100717.31
2022-08-11T18:43:44.398Z,100723.31
2022-08-11T18:46:36.938Z,100720.38
2022-08-11T18:50:01.771Z,100719.28
2022-08-11T18:52:41.199Z,100717.13
2022-08-11T18:55:34.809Z,100717.56
2022-08-11T18:58:24.688Z,100722.34
2022-08-11T19:01:16.762Z,100719.06
2022-08-11T19:04:11.741Z,100715.53
2022-08-11T19:07:04.080Z,100722.19
2022-08-11T19:09:52.347Z,100722.41
2022-08-11T19:12:43.933Z,100718.97
2022-08-11T19:15:31.746Z,100718.19
2022-08-11T19:18:20.168Z,100724.63
2022-08-11T19:21:06.876Z,100730.06
2022-08-11T19:23:57.521Z,100728.28
2022-08-11T19:26:44.575Z,100735.56
2022-08-11T19:30:07.644Z,100744.56
2022-08-11T19:32:40.454Z,100739.34
2022-08-11T19:35:28.385Z,100743.94
2022-08-11T19:38:17.132Z,100735.03
2022-08-11T19:41:03.429Z,100739.44
2022-08-11T19:43:51.428Z,100741.16
2022-08-11T19:46:42.094Z,100744.88
2022-08-11T19:49:30.784Z,100744.03
2022-08-11T19:52:18.410Z,100748.56
2022-08-11T19:55:05.725Z,100743.50
2022-08-11T19:57:54.842Z,100747.16
2022-08-11T20:00:42.117Z,100743.47
2022-08-11T20:03:31.673Z,100752.25
2022-08-11T20:06:21.682Z,100748.84
2022-08-11T20:09:11.899Z,100747.16
2022-08-11T20:12:01.631Z,100746.13
2022-08-11T20:14:52.303Z,100744.25
2022-08-11T20:17:43.134Z,100745.06
2022-08-11T20:20:33.509Z,100745.59
2022-08-11T20:23:24.845Z,100754.38
2022-08-11T20:26:30.101Z,100753.34
2022-08-11T20:29:18.795Z,100755.16
2022-08-11T20:32:09.263Z,100752.28
2022-08-11T20:34:58.743Z,100760.16
2022-08-11T20:37:51.036Z,100757.25
2022-08-11T20:40:42.481Z,100763.44
2022-08-11T20:44:07.657Z,100763.97
2022-08-11T20:49:53.625Z,100767.50
2022-08-11T20:52:48.408Z,100766.34
2022-08-11T20:55:51.634Z,100765.16
2022-08-11T21:01:47.114Z,100762.06
2022-08-11T21:04:55.086Z,100761.53
2022-08-11T21:07:55.178Z,100767.44
2022-08-11T21:10:50.604Z,100767.94
2022-08-11T21:13:42.083Z,100769.31
2022-08-11T21:16:32.193Z,100772.38
2022-08-11T21:20:00.793Z,100776.56
2022-08-11T21:22:58.565Z,100787.19
2022-08-11T21:25:48.197Z,100784.53
2022-08-11T21:28:36.969Z,100787.69
2022-08-11T21:31:25.275Z,100781.88
2022-08-11T21:34:12.268Z,100779.53
2022-08-11T21:37:00.973Z,100785.38
2022-08-11T21:39:47.847Z,100780.25
2022-08-11T21:42:38.109Z,100774.41
2022-08-11T21:45:27.688Z,100774.53
2022-08-11T21:48:15.366Z,100779.31
2022-08-11T21:51:01.456Z,100776.13
2022-08-11T21:53:47.777Z,100780.03
2022-08-11T21:56:34.422Z,100767.84
2022-08-11T21:59:21.972Z,100777.09
2022-08-11T22:02:12.559Z,100773.94
2022-08-11T22:05:00.174Z,100769.06
2022-08-11T22:07:46.971Z,100780.25
2022-08-11T22:10:40.689Z,100781.59
2022-08-11T22:13:31.135Z,100784.88
2022-08-11T22:16:19.294Z,100791.44
2022-08-11T22:19:08.240Z,100784.69
2022-08-11T22:22:02.910Z,100787.84
2022-08-11T22:24:52.755Z,100784.78
2022-08-11T22:27:40.041Z,100787.84
2022-08-11T22:30:29.694Z,100790.84
2022-08-11T22:33:25.615Z,100794.00
2022-08-11T22:36:14.766Z,100798.84
2022-08-11T22:39:03.453Z,100790.56
2022-08-11T22:41:49.639Z,100795.41
2022-08-11T22:44:36.113Z,100792.19
2022-08-11T22:47:23.585Z,100784.63
2022-08-11T22:50:16.881Z,100779.66
2022-08-11T22:53:03.630Z,100781.66
2022-08-11T22:55:50.300Z,100783.63
2022-08-11T22:58:40.264Z,100789.22
2022-08-11T23:01:26.512Z,100783.06
2022-08-11T23:04:15.073Z,100789.41
2022-08-11T23:07:03.034Z,100790.13
2022-08-11T23:09:49.646Z,100780.31
2022-08-11T23:12:36.426Z,100783.84
2022-08-11T23:15:24.517Z,100780.19
2022-08-11T23:18:10.754Z,100782.78
2022-08-11T23:20:58.930Z,100778.28
2022-08-11T23:23:48.089Z,100773.66
2022-08-11T23:26:36.679Z,100781.44
2022-08-11T23:29:25.170Z,100779.50
2022-08-11T23:32:12.422Z,100778.06
2022-08-11T23:35:37.099Z,100780.50
2022-08-11T23:38:09.065Z,100779.44
2022-08-11T23:40:58.530Z,100772.28
2022-08-11T23:43:44.229Z,100778.59
2022-08-11T23:46:30.588Z,100772.38
2022-08-11T23:49:20.567Z,100769.81
2022-08-11T23:52:07.623Z,100775.41
2022-08-11T23:54:54.368Z,100776.75
2022-08-11T23:57:47.811Z,100769.16
